• Join FlightAware (Why Join?)
  • Login
  • US Flag 
09:27PM EDT


 

Airport Tracker/Info


-or-


 

Live Flight TrackerFlight Track Log ✈ N2352Y ✈ 09-Feb-2014 ✈ KECP - KBHM

Flight Track Log - Related Links

Times and Time Zones

All times are in EST time to prevent confusion due to time zone crossing. See the N2352Y flight status page for this flight to view local times or setup timezone preferences in your user account.

Time Position Orientation Groundspeed Altitude Reporting Facility
EST Latitude Longitude Course Direction KTS MPH feet Rate Location/Type
01:00PM 30.5039 -85.8436 344° North 134 154 6,100  Level Jacksonville Center
01:02PM 30.6233 -85.8705 352° North  Level FlightAware Approximate
01:02PM 30.6008 -85.8875 339° North 189 217 6,000  Level Jacksonville Center
01:03PM 30.6701 -85.8783 352° North  Level FlightAware Approximate
01:03PM 30.6550 -85.8917 356° North 187 215 6,000  Level Jacksonville Center
01:04PM 30.7165 -85.8884 345° North  Level FlightAware Approximate
01:04PM 30.7050 -85.9031 349° North 183 211 6,000  Level Jacksonville Center
01:05PM 30.7623 -85.9023 345° North  Level FlightAware Approximate
01:05PM 30.7567 -85.9142 350° North 183 211 6,000  Level Jacksonville Center
01:06PM 30.8067 -85.9281 347° North 183 211 6,000  Level Jacksonville Center
01:07PM 30.8522 -85.9414 346° North 184 212 6,000  Level Jacksonville Center
01:08PM 30.9019 -85.9553 347° North 185 213 6,000  Level Jacksonville Center
01:10PM 31.0014 -85.9850 346° North 186 214 6,000  Level Jacksonville Center
01:11PM 31.0511 -85.9989 347° North 187 215 6,000  Level Jacksonville Center
01:13PM 31.1528 -86.0289 346° North 187 215 6,000  Level Jacksonville Center
01:14PM 31.2108 -86.0453 346° North 188 216 6,000  Level Jacksonville Center
01:16PM 31.3122 -86.0781 345° North 189 217 6,000  Level Jacksonville Center
01:17PM 31.3642 -86.0919 347° North 187 215 6,000  Level Jacksonville Center
01:19PM 31.4678 -86.1222 346° North 186 214 6,000  Level Jacksonville Center
01:20PM 31.5153 -86.1386 344° North 188 216 6,000  Level Jacksonville Center
01:47PM 32.9169 -86.5603 348° North 186 214 6,000  Level Atlanta Center
01:50PM 33.0267 -86.5933 348° North 187 215 6,000  Level Atlanta Center
01:51PM 32.9621 -86.5660 345° North  Level FlightAware Approximate
01:51PM 33.0767 -86.6069 347° North 190 219 6,000  Level Atlanta Center
01:52PM 33.0092 -86.5810 345° North  Level FlightAware Approximate
01:52PM 33.1331 -86.6039 North 208 239 5,400  Level Atlanta Center
01:53PM 33.0569 -86.5934 348° North  Level FlightAware Approximate
01:53PM 33.1894 -86.6006 North 204 235 5,000  Level Atlanta Center
01:54PM 33.2417 -86.6019 359° North 184 212 5,000  Level Atlanta Center
01:55PM 33.2961 -86.5961 North 181 208 5,000 -60 Level Atlanta Center
01:58PM 33.4383 -86.5756 347° North 170 196 4,800 -420 Descending Atlanta Center
02:00PM 33.5317 -86.6056 345° North 177 204 3,200 -780 Descending Atlanta Center
02:01PM 33.5706 -86.6367 326° Northwest 165 190 2,600 -540 Descending Atlanta Center
02:03PM 33.5944 -86.7022 294° West 111 128 1,600 -540 Descending Atlanta Center
02:05PM 33.5639 -86.7523 162° South  Level Estimated
02:12PM 33.5639 -86.7523 330° Northwest  Level Estimated